sensor_id;sensor_type;location;lat;lon;timestamp;P1;durP1;ratioP1;P2;durP2;ratioP2
54807;SDS011;40708;50.364;7.550;2024-03-08T00:00:42;23.52;;;19.08;;
54807;SDS011;40708;50.364;7.550;2024-03-08T00:03:08;22.97;;;17.90;;
54807;SDS011;40708;50.364;7.550;2024-03-08T00:05:35;26.87;;;18.60;;
54807;SDS011;40708;50.364;7.550;2024-03-08T00:08:00;24.93;;;19.10;;
54807;SDS011;40708;50.364;7.550;2024-03-08T00:10:25;23.45;;;18.35;;
54807;SDS011;40708;50.364;7.550;2024-03-08T00:12:50;25.90;;;19.25;;
54807;SDS011;40708;50.364;7.550;2024-03-08T00:15:16;26.47;;;19.50;;
54807;SDS011;40708;50.364;7.550;2024-03-08T00:17:42;24.67;;;18.60;;
54807;SDS011;40708;50.364;7.550;2024-03-08T00:20:07;25.70;;;18.07;;
54807;SDS011;40708;50.364;7.550;2024-03-08T00:22:39;26.23;;;18.73;;
54807;SDS011;40708;50.364;7.550;2024-03-08T00:25:04;22.90;;;17.77;;
54807;SDS011;40708;50.364;7.550;2024-03-08T00:27:30;20.63;;;17.43;;
54807;SDS011;40708;50.364;7.550;2024-03-08T00:29:56;22.13;;;18.07;;
54807;SDS011;40708;50.364;7.550;2024-03-08T00:32:21;22.30;;;16.60;;
54807;SDS011;40708;50.364;7.550;2024-03-08T00:34:49;23.47;;;16.63;;
54807;SDS011;40708;50.364;7.550;2024-03-08T00:37:16;20.33;;;16.57;;
54807;SDS011;40708;50.364;7.550;2024-03-08T00:39:41;23.20;;;17.70;;
54807;SDS011;40708;50.364;7.550;2024-03-08T00:42:07;26.15;;;17.10;;
54807;SDS011;40708;50.364;7.550;2024-03-08T00:44:32;20.48;;;16.52;;
54807;SDS011;40708;50.364;7.550;2024-03-08T00:46:57;22.03;;;17.23;;
54807;SDS011;40708;50.364;7.550;2024-03-08T00:49:23;20.07;;;15.87;;
54807;SDS011;40708;50.364;7.550;2024-03-08T00:51:49;22.43;;;16.77;;
54807;SDS011;40708;50.364;7.550;2024-03-08T00:54:14;25.35;;;17.45;;
54807;SDS011;40708;50.364;7.550;2024-03-08T00:56:41;23.83;;;16.80;;
54807;SDS011;40708;50.364;7.550;2024-03-08T00:59:06;22.92;;;16.80;;
54807;SDS011;40708;50.364;7.550;2024-03-08T01:01:31;24.17;;;17.07;;
54807;SDS011;40708;50.364;7.550;2024-03-08T01:03:57;23.10;;;17.87;;
54807;SDS011;40708;50.364;7.550;2024-03-08T01:06:23;22.63;;;16.70;;
54807;SDS011;40708;50.364;7.550;2024-03-08T01:08:48;23.83;;;18.17;;
54807;SDS011;40708;50.364;7.550;2024-03-08T01:11:16;22.27;;;17.60;;
54807;SDS011;40708;50.364;7.550;2024-03-08T01:13:42;24.10;;;18.07;;
54807;SDS011;40708;50.364;7.550;2024-03-08T01:16:07;23.87;;;18.00;;
54807;SDS011;40708;50.364;7.550;2024-03-08T01:18:32;22.63;;;17.90;;
54807;SDS011;40708;50.364;7.550;2024-03-08T01:20:57;26.02;;;18.13;;
54807;SDS011;40708;50.364;7.550;2024-03-08T01:23:22;22.83;;;16.27;;
54807;SDS011;40708;50.364;7.550;2024-03-08T01:25:48;22.38;;;18.33;;
54807;SDS011;40708;50.364;7.550;2024-03-08T01:28:17;22.77;;;17.10;;
54807;SDS011;40708;50.364;7.550;2024-03-08T01:30:42;23.67;;;16.73;;
54807;SDS011;40708;50.364;7.550;2024-03-08T01:33:07;24.60;;;17.57;;
54807;SDS011;40708;50.364;7.550;2024-03-08T01:35:33;27.10;;;18.33;;
54807;SDS011;40708;50.364;7.550;2024-03-08T01:37:59;26.63;;;18.87;;
54807;SDS011;40708;50.364;7.550;2024-03-08T01:40:24;26.47;;;18.47;;
54807;SDS011;40708;50.364;7.550;2024-03-08T01:42:49;24.77;;;18.30;;
54807;SDS011;40708;50.364;7.550;2024-03-08T01:45:14;25.52;;;18.73;;
54807;SDS011;40708;50.364;7.550;2024-03-08T01:47:41;27.47;;;19.23;;
54807;SDS011;40708;50.364;7.550;2024-03-08T01:50:06;25.33;;;17.93;;
54807;SDS011;40708;50.364;7.550;2024-03-08T01:52:32;22.57;;;16.80;;
54807;SDS011;40708;50.364;7.550;2024-03-08T01:54:59;28.57;;;20.13;;
54807;SDS011;40708;50.364;7.550;2024-03-08T01:57:26;24.40;;;19.37;;
54807;SDS011;40708;50.364;7.550;2024-03-08T01:59:51;26.47;;;18.20;;
54807;SDS011;40708;50.364;7.550;2024-03-08T02:02:19;25.47;;;18.87;;
54807;SDS011;40708;50.364;7.550;2024-03-08T02:04:44;24.53;;;18.80;;
54807;SDS011;40708;50.364;7.550;2024-03-08T02:07:10;28.17;;;18.67;;
54807;SDS011;40708;50.364;7.550;2024-03-08T02:09:35;24.07;;;18.27;;
54807;SDS011;40708;50.364;7.550;2024-03-08T02:12:00;26.42;;;19.05;;
54807;SDS011;40708;50.364;7.550;2024-03-08T02:14:26;25.50;;;18.50;;
54807;SDS011;40708;50.364;7.550;2024-03-08T02:16:51;24.83;;;19.40;;
54807;SDS011;40708;50.364;7.550;2024-03-08T02:19:16;28.97;;;19.77;;
54807;SDS011;40708;50.364;7.550;2024-03-08T02:21:41;26.40;;;18.20;;
54807;SDS011;40708;50.364;7.550;2024-03-08T02:24:06;27.08;;;19.70;;
54807;SDS011;40708;50.364;7.550;2024-03-08T02:26:32;26.00;;;18.77;;
54807;SDS011;40708;50.364;7.550;2024-03-08T02:28:57;28.23;;;20.03;;
54807;SDS011;40708;50.364;7.550;2024-03-08T02:31:22;23.48;;;17.95;;
54807;SDS011;40708;50.364;7.550;2024-03-08T02:33:47;25.73;;;18.67;;
54807;SDS011;40708;50.364;7.550;2024-03-08T02:36:12;27.45;;;20.23;;
54807;SDS011;40708;50.364;7.550;2024-03-08T02:38:38;32.17;;;19.90;;
54807;SDS011;40708;50.364;7.550;2024-03-08T02:41:03;27.53;;;18.70;;
54807;SDS011;40708;50.364;7.550;2024-03-08T02:43:28;26.67;;;18.17;;
54807;SDS011;40708;50.364;7.550;2024-03-08T02:45:54;24.30;;;18.03;;
54807;SDS011;40708;50.364;7.550;2024-03-08T02:48:19;27.43;;;18.80;;
54807;SDS011;40708;50.364;7.550;2024-03-08T02:50:44;24.97;;;18.67;;
54807;SDS011;40708;50.364;7.550;2024-03-08T02:53:09;26.93;;;18.93;;
54807;SDS011;40708;50.364;7.550;2024-03-08T02:55:35;26.77;;;19.17;;
54807;SDS011;40708;50.364;7.550;2024-03-08T02:58:01;25.47;;;17.93;;
54807;SDS011;40708;50.364;7.550;2024-03-08T03:00:26;28.30;;;18.27;;
54807;SDS011;40708;50.364;7.550;2024-03-08T03:02:51;25.53;;;19.73;;
54807;SDS011;40708;50.364;7.550;2024-03-08T03:05:19;26.17;;;19.40;;
54807;SDS011;40708;50.364;7.550;2024-03-08T03:07:44;26.73;;;18.40;;
54807;SDS011;40708;50.364;7.550;2024-03-08T03:10:10;29.10;;;20.83;;
54807;SDS011;40708;50.364;7.550;2024-03-08T03:12:37;29.17;;;18.73;;
54807;SDS011;40708;50.364;7.550;2024-03-08T03:15:03;24.23;;;18.30;;
54807;SDS011;40708;50.364;7.550;2024-03-08T03:17:28;26.93;;;20.33;;
54807;SDS011;40708;50.364;7.550;2024-03-08T03:19:53;27.73;;;19.07;;
54807;SDS011;40708;50.364;7.550;2024-03-08T03:22:19;29.75;;;20.67;;
54807;SDS011;40708;50.364;7.550;2024-03-08T03:24:44;28.37;;;18.70;;
54807;SDS011;40708;50.364;7.550;2024-03-08T03:27:11;29.23;;;20.27;;
54807;SDS011;40708;50.364;7.550;2024-03-08T03:29:37;30.80;;;20.87;;
54807;SDS011;40708;50.364;7.550;2024-03-08T03:32:02;29.20;;;20.60;;
54807;SDS011;40708;50.364;7.550;2024-03-08T03:34:29;28.70;;;19.73;;
54807;SDS011;40708;50.364;7.550;2024-03-08T03:36:54;27.25;;;19.58;;
54807;SDS011;40708;50.364;7.550;2024-03-08T03:39:20;30.50;;;21.00;;
54807;SDS011;40708;50.364;7.550;2024-03-08T03:41:47;25.30;;;18.73;;
54807;SDS011;40708;50.364;7.550;2024-03-08T03:44:14;28.60;;;19.40;;
54807;SDS011;40708;50.364;7.550;2024-03-08T03:46:41;30.80;;;20.80;;
54807;SDS011;40708;50.364;7.550;2024-03-08T03:49:09;28.70;;;19.90;;
54807;SDS011;40708;50.364;7.550;2024-03-08T03:51:34;26.95;;;18.90;;
54807;SDS011;40708;50.364;7.550;2024-03-08T03:53:59;28.53;;;19.83;;
54807;SDS011;40708;50.364;7.550;2024-03-08T03:56:25;28.03;;;18.90;;
54807;SDS011;40708;50.364;7.550;2024-03-08T03:58:50;28.57;;;20.07;;
54807;SDS011;40708;50.364;7.550;2024-03-08T04:01:16;26.63;;;19.47;;
54807;SDS011;40708;50.364;7.550;2024-03-08T04:03:41;30.23;;;21.38;;
54807;SDS011;40708;50.364;7.550;2024-03-08T04:06:08;28.27;;;19.47;;
54807;SDS011;40708;50.364;7.550;2024-03-08T04:08:33;29.30;;;21.00;;
54807;SDS011;40708;50.364;7.550;2024-03-08T04:10:59;28.03;;;20.77;;
54807;SDS011;40708;50.364;7.550;2024-03-08T04:13:24;26.93;;;19.53;;
54807;SDS011;40708;50.364;7.550;2024-03-08T04:15:49;29.13;;;20.27;;
54807;SDS011;40708;50.364;7.550;2024-03-08T04:18:14;27.70;;;19.77;;
54807;SDS011;40708;50.364;7.550;2024-03-08T04:20:40;28.07;;;19.27;;
54807;SDS011;40708;50.364;7.550;2024-03-08T04:23:05;31.67;;;20.07;;
54807;SDS011;40708;50.364;7.550;2024-03-08T04:25:30;27.00;;;19.90;;
54807;SDS011;40708;50.364;7.550;2024-03-08T04:27:55;29.00;;;20.33;;
54807;SDS011;40708;50.364;7.550;2024-03-08T04:30:21;28.53;;;20.80;;
54807;SDS011;40708;50.364;7.550;2024-03-08T04:32:46;27.97;;;20.70;;
54807;SDS011;40708;50.364;7.550;2024-03-08T04:35:12;29.70;;;20.43;;
54807;SDS011;40708;50.364;7.550;2024-03-08T04:37:37;29.03;;;19.83;;
54807;SDS011;40708;50.364;7.550;2024-03-08T04:40:02;29.27;;;21.83;;
54807;SDS011;40708;50.364;7.550;2024-03-08T04:42:28;28.43;;;19.60;;
54807;SDS011;40708;50.364;7.550;2024-03-08T04:44:54;31.90;;;21.97;;
54807;SDS011;40708;50.364;7.550;2024-03-08T04:47:19;28.93;;;20.80;;
54807;SDS011;40708;50.364;7.550;2024-03-08T04:49:45;32.33;;;23.13;;
54807;SDS011;40708;50.364;7.550;2024-03-08T04:52:10;29.00;;;21.97;;
54807;SDS011;40708;50.364;7.550;2024-03-08T04:54:35;29.60;;;19.87;;
54807;SDS011;40708;50.364;7.550;2024-03-08T04:57:01;33.40;;;22.33;;
54807;SDS011;40708;50.364;7.550;2024-03-08T04:59:26;29.27;;;21.00;;
54807;SDS011;40708;50.364;7.550;2024-03-08T05:01:52;27.27;;;19.97;;
54807;SDS011;40708;50.364;7.550;2024-03-08T05:04:17;32.03;;;21.13;;
54807;SDS011;40708;50.364;7.550;2024-03-08T05:06:42;33.97;;;22.60;;
54807;SDS011;40708;50.364;7.550;2024-03-08T05:09:07;28.97;;;19.90;;
54807;SDS011;40708;50.364;7.550;2024-03-08T05:11:42;31.17;;;21.37;;
54807;SDS011;40708;50.364;7.550;2024-03-08T05:14:08;28.23;;;19.63;;
54807;SDS011;40708;50.364;7.550;2024-03-08T05:16:33;33.97;;;23.38;;
54807;SDS011;40708;50.364;7.550;2024-03-08T05:18:59;31.20;;;21.80;;
54807;SDS011;40708;50.364;7.550;2024-03-08T05:21:24;32.67;;;22.33;;
54807;SDS011;40708;50.364;7.550;2024-03-08T05:23:50;31.08;;;21.08;;
54807;SDS011;40708;50.364;7.550;2024-03-08T05:26:15;31.70;;;21.43;;
54807;SDS011;40708;50.364;7.550;2024-03-08T05:28:40;33.60;;;21.63;;
54807;SDS011;40708;50.364;7.550;2024-03-08T05:31:07;33.50;;;22.87;;
54807;SDS011;40708;50.364;7.550;2024-03-08T05:33:32;37.50;;;22.60;;
54807;SDS011;40708;50.364;7.550;2024-03-08T05:35:59;34.70;;;23.53;;
54807;SDS011;40708;50.364;7.550;2024-03-08T05:38:25;38.80;;;23.73;;
54807;SDS011;40708;50.364;7.550;2024-03-08T05:40:50;33.60;;;23.40;;
54807;SDS011;40708;50.364;7.550;2024-03-08T05:43:16;36.30;;;22.93;;
54807;SDS011;40708;50.364;7.550;2024-03-08T05:45:44;34.53;;;23.50;;
54807;SDS011;40708;50.364;7.550;2024-03-08T05:48:09;32.67;;;23.27;;
54807;SDS011;40708;50.364;7.550;2024-03-08T05:50:34;32.00;;;22.23;;
54807;SDS011;40708;50.364;7.550;2024-03-08T05:52:59;32.67;;;21.37;;
54807;SDS011;40708;50.364;7.550;2024-03-08T05:55:25;34.43;;;22.17;;
54807;SDS011;40708;50.364;7.550;2024-03-08T05:57:50;34.80;;;23.90;;
54807;SDS011;40708;50.364;7.550;2024-03-08T06:00:15;32.88;;;23.55;;
54807;SDS011;40708;50.364;7.550;2024-03-08T06:02:41;31.57;;;21.53;;
54807;SDS011;40708;50.364;7.550;2024-03-08T06:05:09;33.57;;;21.73;;
54807;SDS011;40708;50.364;7.550;2024-03-08T06:07:35;35.30;;;24.23;;
54807;SDS011;40708;50.364;7.550;2024-03-08T06:10:00;34.40;;;23.63;;
54807;SDS011;40708;50.364;7.550;2024-03-08T06:12:26;30.70;;;21.90;;
54807;SDS011;40708;50.364;7.550;2024-03-08T06:14:53;33.83;;;22.63;;
54807;SDS011;40708;50.364;7.550;2024-03-08T06:17:19;34.17;;;23.43;;
54807;SDS011;40708;50.364;7.550;2024-03-08T06:19:44;30.63;;;20.73;;
54807;SDS011;40708;50.364;7.550;2024-03-08T06:22:09;35.55;;;23.63;;
54807;SDS011;40708;50.364;7.550;2024-03-08T06:24:34;36.27;;;23.17;;
54807;SDS011;40708;50.364;7.550;2024-03-08T06:27:01;33.60;;;22.53;;
54807;SDS011;40708;50.364;7.550;2024-03-08T06:29:27;29.70;;;21.47;;
54807;SDS011;40708;50.364;7.550;2024-03-08T06:31:52;30.10;;;21.90;;
54807;SDS011;40708;50.364;7.550;2024-03-08T06:34:18;28.13;;;21.57;;
54807;SDS011;40708;50.364;7.550;2024-03-08T06:36:43;28.83;;;22.20;;
54807;SDS011;40708;50.364;7.550;2024-03-08T06:39:09;29.77;;;22.00;;
54807;SDS011;40708;50.364;7.550;2024-03-08T06:41:35;29.00;;;21.47;;
54807;SDS011;40708;50.364;7.550;2024-03-08T06:44:00;30.27;;;21.50;;
54807;SDS011;40708;50.364;7.550;2024-03-08T06:46:26;28.30;;;20.57;;
54807;SDS011;40708;50.364;7.550;2024-03-08T06:48:51;28.43;;;22.03;;
54807;SDS011;40708;50.364;7.550;2024-03-08T06:51:16;29.53;;;20.60;;
54807;SDS011;40708;50.364;7.550;2024-03-08T06:53:41;25.57;;;19.57;;
54807;SDS011;40708;50.364;7.550;2024-03-08T06:56:07;28.33;;;20.23;;
54807;SDS011;40708;50.364;7.550;2024-03-08T06:58:35;23.47;;;19.50;;
54807;SDS011;40708;50.364;7.550;2024-03-08T07:01:00;26.25;;;19.27;;
54807;SDS011;40708;50.364;7.550;2024-03-08T07:03:28;27.20;;;21.43;;
54807;SDS011;40708;50.364;7.550;2024-03-08T07:05:54;24.77;;;20.53;;
54807;SDS011;40708;50.364;7.550;2024-03-08T07:08:21;22.03;;;18.53;;
54807;SDS011;40708;50.364;7.550;2024-03-08T07:10:48;23.47;;;18.50;;
54807;SDS011;40708;50.364;7.550;2024-03-08T07:13:14;21.70;;;16.87;;
54807;SDS011;40708;50.364;7.550;2024-03-08T07:15:39;21.83;;;17.30;;
54807;SDS011;40708;50.364;7.550;2024-03-08T07:18:04;19.87;;;16.37;;
54807;SDS011;40708;50.364;7.550;2024-03-08T07:20:30;23.27;;;17.10;;
54807;SDS011;40708;50.364;7.550;2024-03-08T07:22:55;22.43;;;17.70;;
54807;SDS011;40708;50.364;7.550;2024-03-08T07:25:20;20.60;;;17.58;;
54807;SDS011;40708;50.364;7.550;2024-03-08T07:27:52;20.43;;;17.03;;
54807;SDS011;40708;50.364;7.550;2024-03-08T07:30:18;22.83;;;18.10;;
54807;SDS011;40708;50.364;7.550;2024-03-08T07:33:02;18.87;;;16.63;;
54807;SDS011;40708;50.364;7.550;2024-03-08T07:35:27;19.90;;;16.97;;
54807;SDS011;40708;50.364;7.550;2024-03-08T07:37:53;21.60;;;18.13;;
54807;SDS011;40708;50.364;7.550;2024-03-08T07:40:19;22.37;;;17.87;;
54807;SDS011;40708;50.364;7.550;2024-03-08T07:42:45;22.57;;;18.17;;
54807;SDS011;40708;50.364;7.550;2024-03-08T07:45:10;22.00;;;18.67;;
54807;SDS011;40708;50.364;7.550;2024-03-08T07:47:35;23.50;;;18.53;;
54807;SDS011;40708;50.364;7.550;2024-03-08T07:50:01;21.93;;;18.40;;
54807;SDS011;40708;50.364;7.550;2024-03-08T07:52:26;21.33;;;18.30;;
54807;SDS011;40708;50.364;7.550;2024-03-08T07:54:52;23.85;;;17.15;;
54807;SDS011;40708;50.364;7.550;2024-03-08T07:57:17;18.87;;;16.30;;
54807;SDS011;40708;50.364;7.550;2024-03-08T07:59:42;21.23;;;16.80;;
54807;SDS011;40708;50.364;7.550;2024-03-08T08:02:08;18.00;;;15.93;;
54807;SDS011;40708;50.364;7.550;2024-03-08T08:04:33;20.73;;;16.67;;
54807;SDS011;40708;50.364;7.550;2024-03-08T08:06:58;21.88;;;17.27;;
54807;SDS011;40708;50.364;7.550;2024-03-08T08:09:23;20.63;;;16.50;;
54807;SDS011;40708;50.364;7.550;2024-03-08T08:11:54;18.60;;;16.20;;
54807;SDS011;40708;50.364;7.550;2024-03-08T08:14:19;20.70;;;16.43;;
54807;SDS011;40708;50.364;7.550;2024-03-08T08:16:46;20.83;;;16.03;;
54807;SDS011;40708;50.364;7.550;2024-03-08T08:19:13;18.30;;;15.70;;
54807;SDS011;40708;50.364;7.550;2024-03-08T08:21:38;18.37;;;15.77;;
54807;SDS011;40708;50.364;7.550;2024-03-08T08:24:03;22.97;;;16.33;;
54807;SDS011;40708;50.364;7.550;2024-03-08T08:26:29;17.63;;;15.63;;
54807;SDS011;40708;50.364;7.550;2024-03-08T08:28:54;17.80;;;15.23;;
54807;SDS011;40708;50.364;7.550;2024-03-08T08:31:19;18.87;;;15.43;;
54807;SDS011;40708;50.364;7.550;2024-03-08T08:33:44;19.97;;;15.20;;
54807;SDS011;40708;50.364;7.550;2024-03-08T08:36:10;20.17;;;16.33;;
54807;SDS011;40708;50.364;7.550;2024-03-08T08:38:35;24.88;;;17.10;;
54807;SDS011;40708;50.364;7.550;2024-03-08T08:41:00;21.10;;;18.13;;
54807;SDS011;40708;50.364;7.550;2024-03-08T08:43:27;17.73;;;15.20;;
54807;SDS011;40708;50.364;7.550;2024-03-08T08:45:52;16.77;;;14.97;;
54807;SDS011;40708;50.364;7.550;2024-03-08T08:48:19;18.47;;;16.03;;
54807;SDS011;40708;50.364;7.550;2024-03-08T08:50:44;21.20;;;16.57;;
54807;SDS011;40708;50.364;7.550;2024-03-08T08:53:10;18.03;;;15.00;;
54807;SDS011;40708;50.364;7.550;2024-03-08T08:55:35;18.37;;;15.63;;
54807;SDS011;40708;50.364;7.550;2024-03-08T08:58:00;18.90;;;14.87;;
54807;SDS011;40708;50.364;7.550;2024-03-08T09:00:28;18.33;;;15.40;;
54807;SDS011;40708;50.364;7.550;2024-03-08T09:02:55;17.90;;;15.30;;
54807;SDS011;40708;50.364;7.550;2024-03-08T09:05:22;18.20;;;15.07;;
54807;SDS011;40708;50.364;7.550;2024-03-08T09:07:49;18.40;;;15.43;;
54807;SDS011;40708;50.364;7.550;2024-03-08T09:10:15;17.83;;;14.90;;
54807;SDS011;40708;50.364;7.550;2024-03-08T09:12:40;17.10;;;14.50;;
54807;SDS011;40708;50.364;7.550;2024-03-08T09:15:05;18.63;;;15.87;;
54807;SDS011;40708;50.364;7.550;2024-03-08T09:17:33;18.43;;;15.20;;
54807;SDS011;40708;50.364;7.550;2024-03-08T09:19:58;17.13;;;14.77;;
54807;SDS011;40708;50.364;7.550;2024-03-08T09:22:24;17.40;;;14.73;;
54807;SDS011;40708;50.364;7.550;2024-03-08T09:24:50;19.20;;;15.33;;
54807;SDS011;40708;50.364;7.550;2024-03-08T09:27:15;18.87;;;15.40;;
54807;SDS011;40708;50.364;7.550;2024-03-08T09:29:40;18.90;;;15.57;;
54807;SDS011;40708;50.364;7.550;2024-03-08T09:32:06;16.73;;;14.73;;
54807;SDS011;40708;50.364;7.550;2024-03-08T09:34:32;17.60;;;15.70;;
54807;SDS011;40708;50.364;7.550;2024-03-08T09:36:57;15.33;;;13.67;;
54807;SDS011;40708;50.364;7.550;2024-03-08T09:39:22;16.87;;;14.37;;
54807;SDS011;40708;50.364;7.550;2024-03-08T09:41:48;18.80;;;14.83;;
54807;SDS011;40708;50.364;7.550;2024-03-08T09:44:14;19.23;;;14.50;;
54807;SDS011;40708;50.364;7.550;2024-03-08T09:46:39;15.50;;;12.87;;
54807;SDS011;40708;50.364;7.550;2024-03-08T09:49:05;15.70;;;13.20;;
54807;SDS011;40708;50.364;7.550;2024-03-08T09:51:30;15.37;;;13.80;;
54807;SDS011;40708;50.364;7.550;2024-03-08T09:53:58;14.17;;;12.23;;
54807;SDS011;40708;50.364;7.550;2024-03-08T09:56:23;15.27;;;13.10;;
54807;SDS011;40708;50.364;7.550;2024-03-08T09:58:48;17.63;;;13.10;;
54807;SDS011;40708;50.364;7.550;2024-03-08T10:01:32;16.40;;;12.90;;
54807;SDS011;40708;50.364;7.550;2024-03-08T10:03:57;14.73;;;13.02;;
54807;SDS011;40708;50.364;7.550;2024-03-08T10:06:23;17.53;;;12.20;;
54807;SDS011;40708;50.364;7.550;2024-03-08T10:08:48;15.63;;;12.23;;
54807;SDS011;40708;50.364;7.550;2024-03-08T10:11:16;14.00;;;11.83;;
54807;SDS011;40708;50.364;7.550;2024-03-08T10:13:41;13.53;;;11.77;;
54807;SDS011;40708;50.364;7.550;2024-03-08T10:16:07;12.97;;;11.30;;
54807;SDS011;40708;50.364;7.550;2024-03-08T10:18:33;12.20;;;10.97;;
54807;SDS011;40708;50.364;7.550;2024-03-08T10:21:05;14.90;;;11.40;;
54807;SDS011;40708;50.364;7.550;2024-03-08T10:23:32;14.23;;;11.43;;
54807;SDS011;40708;50.364;7.550;2024-03-08T10:25:59;12.90;;;10.67;;
54807;SDS011;40708;50.364;7.550;2024-03-08T10:28:33;11.53;;;10.33;;
54807;SDS011;40708;50.364;7.550;2024-03-08T10:30:59;11.53;;;10.27;;
54807;SDS011;40708;50.364;7.550;2024-03-08T10:33:24;12.43;;;10.53;;
54807;SDS011;40708;50.364;7.550;2024-03-08T10:35:50;12.27;;;10.47;;
54807;SDS011;40708;50.364;7.550;2024-03-08T10:38:16;14.53;;;10.47;;
54807;SDS011;40708;50.364;7.550;2024-03-08T10:40:43;12.73;;;10.63;;
54807;SDS011;40708;50.364;7.550;2024-03-08T10:43:12;13.63;;;10.93;;
54807;SDS011;40708;50.364;7.550;2024-03-08T10:45:40;12.77;;;11.27;;
54807;SDS011;40708;50.364;7.550;2024-03-08T10:48:16;12.23;;;10.47;;
54807;SDS011;40708;50.364;7.550;2024-03-08T10:50:47;12.60;;;10.53;;
54807;SDS011;40708;50.364;7.550;2024-03-08T10:53:15;12.30;;;11.00;;
54807;SDS011;40708;50.364;7.550;2024-03-08T10:55:40;12.17;;;10.00;;
54807;SDS011;40708;50.364;7.550;2024-03-08T10:58:08;10.93;;;9.47;;
54807;SDS011;40708;50.364;7.550;2024-03-08T11:00:34;12.20;;;10.60;;
54807;SDS011;40708;50.364;7.550;2024-03-08T11:02:59;11.93;;;9.70;;
54807;SDS011;40708;50.364;7.550;2024-03-08T11:05:40;10.93;;;9.80;;
54807;SDS011;40708;50.364;7.550;2024-03-08T11:08:18;11.13;;;9.70;;
54807;SDS011;40708;50.364;7.550;2024-03-08T11:10:47;10.87;;;9.37;;
54807;SDS011;40708;50.364;7.550;2024-03-08T11:13:35;10.97;;;9.77;;
54807;SDS011;40708;50.364;7.550;2024-03-08T11:16:07;10.07;;;9.07;;
54807;SDS011;40708;50.364;7.550;2024-03-08T11:18:32;11.07;;;9.67;;
54807;SDS011;40708;50.364;7.550;2024-03-08T11:20:58;12.20;;;10.43;;
54807;SDS011;40708;50.364;7.550;2024-03-08T11:23:26;11.70;;;9.17;;
54807;SDS011;40708;50.364;7.550;2024-03-08T11:25:52;11.47;;;10.00;;
54807;SDS011;40708;50.364;7.550;2024-03-08T11:28:19;10.83;;;9.50;;
54807;SDS011;40708;50.364;7.550;2024-03-08T11:33:26;11.87;;;9.93;;
54807;SDS011;40708;50.364;7.550;2024-03-08T11:35:52;11.53;;;9.77;;
54807;SDS011;40708;50.364;7.550;2024-03-08T11:38:17;11.97;;;9.97;;
54807;SDS011;40708;50.364;7.550;2024-03-08T11:40:45;11.90;;;10.27;;
54807;SDS011;40708;50.364;7.550;2024-03-08T11:43:10;11.07;;;9.87;;
54807;SDS011;40708;50.364;7.550;2024-03-08T11:45:35;11.27;;;9.95;;
54807;SDS011;40708;50.364;7.550;2024-03-08T11:48:01;12.67;;;10.57;;
54807;SDS011;40708;50.364;7.550;2024-03-08T11:50:28;12.70;;;10.30;;
54807;SDS011;40708;50.364;7.550;2024-03-08T11:52:53;13.00;;;10.10;;
54807;SDS011;40708;50.364;7.550;2024-03-08T11:55:24;11.47;;;10.27;;
54807;SDS011;40708;50.364;7.550;2024-03-08T11:57:50;12.53;;;9.40;;
54807;SDS011;40708;50.364;7.550;2024-03-08T12:00:15;11.48;;;9.63;;
54807;SDS011;40708;50.364;7.550;2024-03-08T12:02:47;15.30;;;10.93;;
54807;SDS011;40708;50.364;7.550;2024-03-08T12:05:24;12.03;;;9.90;;
54807;SDS011;40708;50.364;7.550;2024-03-08T12:07:59;14.00;;;10.57;;
54807;SDS011;40708;50.364;7.550;2024-03-08T12:10:24;11.43;;;10.07;;
54807;SDS011;40708;50.364;7.550;2024-03-08T12:12:53;12.13;;;10.47;;
54807;SDS011;40708;50.364;7.550;2024-03-08T12:15:19;17.57;;;11.83;;
54807;SDS011;40708;50.364;7.550;2024-03-08T12:17:45;13.70;;;11.13;;
54807;SDS011;40708;50.364;7.550;2024-03-08T12:20:16;11.67;;;10.33;;
54807;SDS011;40708;50.364;7.550;2024-03-08T12:22:43;12.20;;;10.43;;
54807;SDS011;40708;50.364;7.550;2024-03-08T12:25:08;11.70;;;10.23;;
54807;SDS011;40708;50.364;7.550;2024-03-08T12:27:35;13.43;;;10.33;;
54807;SDS011;40708;50.364;7.550;2024-03-08T12:30:14;10.90;;;9.60;;
54807;SDS011;40708;50.364;7.550;2024-03-08T12:32:40;11.10;;;9.93;;
54807;SDS011;40708;50.364;7.550;2024-03-08T12:35:07;11.27;;;9.60;;
54807;SDS011;40708;50.364;7.550;2024-03-08T12:37:35;11.50;;;10.30;;
54807;SDS011;40708;50.364;7.550;2024-03-08T12:40:00;13.17;;;11.03;;
54807;SDS011;40708;50.364;7.550;2024-03-08T12:42:25;12.25;;;10.90;;
54807;SDS011;40708;50.364;7.550;2024-03-08T12:44:50;13.07;;;10.38;;
54807;SDS011;40708;50.364;7.550;2024-03-08T12:47:16;14.37;;;11.13;;
54807;SDS011;40708;50.364;7.550;2024-03-08T12:49:41;12.70;;;10.97;;
54807;SDS011;40708;50.364;7.550;2024-03-08T12:52:08;13.25;;;11.43;;
54807;SDS011;40708;50.364;7.550;2024-03-08T12:54:35;12.03;;;10.73;;
54807;SDS011;40708;50.364;7.550;2024-03-08T12:57:00;13.25;;;10.93;;
54807;SDS011;40708;50.364;7.550;2024-03-08T12:59:25;12.23;;;9.77;;
54807;SDS011;40708;50.364;7.550;2024-03-08T13:01:51;13.37;;;10.67;;
54807;SDS011;40708;50.364;7.550;2024-03-08T13:04:18;12.83;;;10.30;;
54807;SDS011;40708;50.364;7.550;2024-03-08T13:06:43;13.60;;;10.37;;
54807;SDS011;40708;50.364;7.550;2024-03-08T13:09:11;12.87;;;11.00;;
54807;SDS011;40708;50.364;7.550;2024-03-08T13:11:36;15.23;;;11.07;;
54807;SDS011;40708;50.364;7.550;2024-03-08T13:14:02;11.73;;;10.48;;
54807;SDS011;40708;50.364;7.550;2024-03-08T13:16:28;12.20;;;10.40;;
54807;SDS011;40708;50.364;7.550;2024-03-08T13:18:54;12.10;;;10.47;;
54807;SDS011;40708;50.364;7.550;2024-03-08T13:21:19;12.37;;;11.07;;
54807;SDS011;40708;50.364;7.550;2024-03-08T13:23:45;11.77;;;10.40;;
54807;SDS011;40708;50.364;7.550;2024-03-08T13:26:10;13.50;;;10.67;;
54807;SDS011;40708;50.364;7.550;2024-03-08T13:28:43;12.87;;;10.90;;
54807;SDS011;40708;50.364;7.550;2024-03-08T13:31:08;13.23;;;11.07;;
54807;SDS011;40708;50.364;7.550;2024-03-08T13:33:37;11.80;;;9.73;;
54807;SDS011;40708;50.364;7.550;2024-03-08T13:36:04;12.30;;;9.90;;
54807;SDS011;40708;50.364;7.550;2024-03-08T13:38:31;10.80;;;9.70;;
54807;SDS011;40708;50.364;7.550;2024-03-08T13:40:57;11.87;;;10.03;;
54807;SDS011;40708;50.364;7.550;2024-03-08T13:43:23;11.37;;;10.27;;
54807;SDS011;40708;50.364;7.550;2024-03-08T13:45:48;12.27;;;11.00;;
54807;SDS011;40708;50.364;7.550;2024-03-08T13:48:14;14.20;;;10.23;;
54807;SDS011;40708;50.364;7.550;2024-03-08T13:50:39;13.00;;;9.63;;
54807;SDS011;40708;50.364;7.550;2024-03-08T13:53:05;10.40;;;9.30;;
54807;SDS011;40708;50.364;7.550;2024-03-08T13:55:30;12.33;;;10.03;;
54807;SDS011;40708;50.364;7.550;2024-03-08T13:57:55;12.87;;;10.17;;
54807;SDS011;40708;50.364;7.550;2024-03-08T14:00:22;12.87;;;10.50;;
54807;SDS011;40708;50.364;7.550;2024-03-08T14:02:48;11.90;;;10.03;;
54807;SDS011;40708;50.364;7.550;2024-03-08T14:05:13;19.57;;;10.63;;
54807;SDS011;40708;50.364;7.550;2024-03-08T14:07:40;12.27;;;10.33;;
54807;SDS011;40708;50.364;7.550;2024-03-08T14:10:05;12.03;;;9.77;;
54807;SDS011;40708;50.364;7.550;2024-03-08T14:12:32;11.43;;;10.23;;
54807;SDS011;40708;50.364;7.550;2024-03-08T14:14:57;11.90;;;9.97;;
54807;SDS011;40708;50.364;7.550;2024-03-08T14:17:25;13.93;;;10.60;;
54807;SDS011;40708;50.364;7.550;2024-03-08T14:19:52;10.73;;;8.97;;